Time;durP1;ratioP1;P1;durP2;ratioP2;P2;SDS_P1;SDS_P2;PMS_P1;PMS_P2;Temp;Humidity;BMP_temperature;BMP_pressure;BME280_temperature;BME280_humidity;BME280_pressure;Samples;Min_cycle;Max_cycle;Signal;HPM_P1;HPM_P2
2022/10/08 00:01:38;;;;;;;10.87;2.27;;;;;12.40;101202.00;;;;10529852;27;20219;-74
2022/10/08 00:06:40;;;;;;;14.33;2.37;;;;;12.40;101223.00;;;;10507731;27;20227;-74
2022/10/08 00:11:42;;;;;;;7.40;2.17;;;;;12.50;101206.00;;;;10552511;27;20224;-74
2022/10/08 00:16:43;;;;;;;8.90;2.10;;;;;12.60;101214.00;;;;10501045;28;20197;-74
2022/10/08 00:21:44;;;;;;;6.63;1.80;;;;;12.70;101205.00;;;;10519029;27;20224;-74
2022/10/08 00:26:46;;;;;;;8.20;2.30;;;;;12.70;101196.00;;;;10526742;28;20232;-74
2022/10/08 00:31:49;;;;;;;10.60;2.10;;;;;12.70;101206.00;;;;10544323;27;20207;-74
2022/10/08 00:36:52;;;;;;;10.10;1.93;;;;;12.60;101202.00;;;;10517342;27;20220;-74
2022/10/08 00:41:54;;;;;;;12.93;2.67;;;;;12.60;101197.00;;;;10519815;28;20213;-74
2022/10/08 00:46:55;;;;;;;9.33;2.63;;;;;12.60;101209.00;;;;10529829;27;20204;-74
2022/10/08 00:51:57;;;;;;;6.40;2.40;;;;;12.60;101202.00;;;;10514532;27;20254;-74
2022/10/08 00:56:59;;;;;;;7.87;2.43;;;;;12.70;101189.00;;;;10519202;27;20189;-74
2022/10/08 01:02:01;;;;;;;12.33;2.57;;;;;12.80;101203.00;;;;10541749;28;20211;-74
2022/10/08 01:07:25;;;;;;;7.80;2.33;;;;;12.90;101202.00;;;;10506244;27;20675;-76
2022/10/08 01:12:33;;;;;;;6.50;1.97;;;;;13.00;101208.00;;;;10490728;27;20239;-75
2022/10/08 01:18:12;;;;;;;9.03;3.10;;;;;13.10;101213.00;;;;10490024;27;20201;-75
2022/10/08 01:23:26;;;;;;;8.63;2.60;;;;;13.20;101211.00;;;;10496288;28;20248;-76
2022/10/08 01:28:41;;;;;;;9.03;2.80;;;;;13.20;101214.00;;;;10506109;28;20834;-75
2022/10/08 01:33:49;;;;;;;9.57;2.83;;;;;13.30;101218.00;;;;10464949;27;20197;-76
2022/10/08 01:38:55;;;;;;;9.63;2.43;;;;;13.30;101225.00;;;;10471152;27;20224;-76
2022/10/08 01:44:18;;;;;;;5.17;2.50;;;;;13.10;101226.00;;;;10510733;28;20299;-75
2022/10/08 01:49:23;;;;;;;8.47;2.53;;;;;12.80;101225.00;;;;10484793;28;20206;-76
2022/10/08 01:54:26;;;;;;;9.40;2.33;;;;;12.70;101232.00;;;;10471470;28;20201;-76
2022/10/08 01:59:32;;;;;;;11.87;2.90;;;;;12.70;101228.00;;;;10458756;27;20221;-76
2022/10/08 02:04:34;;;;;;;5.60;2.83;;;;;12.60;101238.00;;;;10488796;28;20280;-75
2022/10/08 02:09:40;;;;;;;12.33;3.23;;;;;12.60;101239.00;;;;10488750;28;20286;-76
2022/10/08 02:14:49;;;;;;;8.23;2.63;;;;;12.50;101240.00;;;;10468269;28;20211;-76
2022/10/08 02:20:12;;;;;;;7.90;3.13;;;;;12.50;101239.00;;;;10481029;28;20244;-76
2022/10/08 02:25:42;;;;;;;8.60;3.17;;;;;12.50;101236.00;;;;10511284;27;20204;-76
2022/10/08 02:31:09;;;;;;;10.43;3.63;;;;;12.60;101259.00;;;;10475186;28;20874;-76
2022/10/08 02:36:13;;;;;;;12.80;3.67;;;;;12.50;101259.00;;;;10497274;28;20215;-76
2022/10/08 02:41:17;;;;;;;8.17;3.17;;;;;12.50;101263.00;;;;10514056;27;20706;-76
2022/10/08 02:46:26;;;;;;;11.27;4.80;;;;;12.50;101258.00;;;;10486896;28;20197;-76
2022/10/08 02:51:29;;;;;;;11.27;4.17;;;;;12.50;101248.00;;;;10504706;28;20204;-76
2022/10/08 02:56:45;;;;;;;12.87;4.43;;;;;12.50;101251.00;;;;10484741;27;20193;-76
2022/10/08 03:01:56;;;;;;;9.33;4.10;;;;;12.40;101245.00;;;;10480307;28;20212;-76
2022/10/08 03:06:58;;;;;;;16.60;4.77;;;;;12.40;101250.00;;;;10527861;28;20205;-76
2022/10/08 03:11:59;;;;;;;8.10;4.27;;;;;12.30;101241.00;;;;10469311;28;20289;-76
2022/10/08 03:17:01;;;;;;;8.00;4.10;;;;;12.20;101255.00;;;;10506816;28;20197;-76
2022/10/08 03:22:03;;;;;;;12.87;3.90;;;;;12.20;101255.00;;;;10485561;28;20891;-76
2022/10/08 03:27:04;;;;;;;11.40;4.40;;;;;12.10;101255.00;;;;10515200;27;20197;-76
2022/10/08 03:32:05;;;;;;;7.80;3.30;;;;;12.10;101261.00;;;;10511660;28;20197;-76
2022/10/08 03:37:06;;;;;;;9.80;4.00;;;;;12.10;101269.00;;;;10472113;28;20200;-76
2022/10/08 03:42:08;;;;;;;11.77;4.90;;;;;12.10;101268.00;;;;10515447;28;20270;-76
2022/10/08 03:47:09;;;;;;;12.33;4.53;;;;;12.00;101269.00;;;;10501783;27;20204;-76
2022/10/08 03:52:10;;;;;;;12.47;5.00;;;;;12.00;101277.00;;;;10502412;28;20197;-76
2022/10/08 03:57:12;;;;;;;12.47;4.03;;;;;11.90;101282.00;;;;10492367;27;20575;-76
2022/10/08 04:02:13;;;;;;;8.30;4.20;;;;;11.80;101269.00;;;;10522680;27;20882;-76
2022/10/08 04:07:15;;;;;;;7.97;3.70;;;;;11.70;101291.00;;;;10505864;27;20196;-76
2022/10/08 04:12:16;;;;;;;10.53;4.67;;;;;11.50;101288.00;;;;10492783;28;20852;-76
2022/10/08 04:17:17;;;;;;;11.67;4.67;;;;;11.40;101292.00;;;;10495428;28;20215;-76
2022/10/08 04:22:18;;;;;;;12.87;4.70;;;;;11.40;101296.00;;;;10497946;27;21000;-75
2022/10/08 04:27:19;;;;;;;11.87;4.73;;;;;11.30;101303.00;;;;10492871;28;20192;-76
2022/10/08 04:32:20;;;;;;;10.30;4.67;;;;;11.20;101300.00;;;;10467091;28;20208;-75
2022/10/08 04:37:22;;;;;;;12.63;5.60;;;;;11.20;101311.00;;;;10466478;28;20270;-76
2022/10/08 04:42:23;;;;;;;12.00;4.50;;;;;11.10;101312.00;;;;10483185;28;20710;-75
2022/10/08 04:47:24;;;;;;;15.33;4.67;;;;;11.10;101322.00;;;;10487917;28;20216;-75
2022/10/08 04:52:25;;;;;;;10.23;4.40;;;;;11.00;101333.00;;;;10461468;28;20193;-76
2022/10/08 04:57:26;;;;;;;11.03;4.70;;;;;11.00;101338.00;;;;10485856;28;20281;-76
2022/10/08 05:02:28;;;;;;;13.77;5.37;;;;;10.90;101338.00;;;;10511345;28;20246;-76
2022/10/08 05:07:29;;;;;;;14.20;6.37;;;;;10.90;101355.00;;;;10517536;28;20189;-76
2022/10/08 05:12:30;;;;;;;14.80;5.10;;;;;11.00;101355.00;;;;10486930;27;20397;-76
2022/10/08 05:17:31;;;;;;;12.93;5.33;;;;;10.90;101361.00;;;;10479516;28;20201;-75
2022/10/08 05:22:32;;;;;;;12.73;6.27;;;;;10.90;101372.00;;;;10505624;28;20216;-75
2022/10/08 05:27:34;;;;;;;13.67;5.70;;;;;10.80;101372.00;;;;10515195;28;20192;-75
2022/10/08 05:32:35;;;;;;;18.60;5.57;;;;;10.80;101370.00;;;;10484838;28;20201;-75
2022/10/08 05:37:36;;;;;;;15.03;6.07;;;;;10.80;101381.00;;;;10495026;28;20193;-76
2022/10/08 05:42:37;;;;;;;13.03;5.97;;;;;10.70;101384.00;;;;10503930;28;20212;-75
2022/10/08 05:47:38;;;;;;;16.60;6.00;;;;;10.70;101394.00;;;;10488927;28;20197;-75
2022/10/08 05:52:40;;;;;;;11.70;6.23;;;;;10.70;101399.00;;;;10490817;27;20231;-75
2022/10/08 05:57:41;;;;;;;16.97;5.67;;;;;10.60;101407.00;;;;10511531;27;20651;-75
2022/10/08 06:02:42;;;;;;;12.80;5.70;;;;;10.60;101417.00;;;;10485134;27;20324;-76
2022/10/08 06:07:43;;;;;;;12.67;5.50;;;;;10.70;101416.00;;;;10475018;28;20261;-75
2022/10/08 06:12:47;;;;;;;14.17;6.17;;;;;10.70;101430.00;;;;10480226;28;20224;-76
2022/10/08 06:17:49;;;;;;;16.63;6.37;;;;;10.90;101437.00;;;;10480100;28;20551;-75
2022/10/08 06:22:50;;;;;;;23.13;6.23;;;;;11.00;101441.00;;;;10472185;28;20223;-75
2022/10/08 06:27:52;;;;;;;19.50;6.97;;;;;11.20;101451.00;;;;10478575;28;20815;-76
2022/10/08 06:32:53;;;;;;;18.33;7.00;;;;;11.30;101470.00;;;;10483073;28;20205;-76
2022/10/08 06:37:54;;;;;;;20.97;7.43;;;;;11.40;101469.00;;;;10497558;27;20199;-76
2022/10/08 06:42:55;;;;;;;15.77;6.40;;;;;11.50;101482.00;;;;10484351;28;20228;-76
2022/10/08 06:47:56;;;;;;;19.60;7.57;;;;;11.70;101488.00;;;;10519724;28;20220;-75
2022/10/08 06:52:57;;;;;;;21.43;7.90;;;;;11.70;101487.00;;;;10509731;28;20200;-76
2022/10/08 06:57:59;;;;;;;14.77;6.60;;;;;11.60;101501.00;;;;10500082;28;20836;-76
2022/10/08 07:03:00;;;;;;;14.40;6.13;;;;;11.80;101500.00;;;;10497545;28;20220;-75
2022/10/08 07:08:02;;;;;;;16.27;6.57;;;;;12.10;101523.00;;;;10465433;28;20201;-76
2022/10/08 07:13:03;;;;;;;20.43;6.80;;;;;12.30;101539.00;;;;10513108;27;20273;-76
2022/10/08 07:18:04;;;;;;;18.90;6.53;;;;;12.50;101546.00;;;;10461164;28;20236;-76
2022/10/08 07:23:05;;;;;;;16.67;6.83;;;;;12.70;101547.00;;;;10479937;27;20590;-76
2022/10/08 07:28:06;;;;;;;15.13;6.13;;;;;12.80;101558.00;;;;10516868;28;20196;-76
2022/10/08 07:33:08;;;;;;;15.50;5.47;;;;;13.00;101565.00;;;;10489667;28;20799;-76
2022/10/08 07:38:09;;;;;;;12.17;4.27;;;;;13.20;101570.00;;;;10465398;28;20261;-76
2022/10/08 07:43:10;;;;;;;12.70;4.30;;;;;13.10;101595.00;;;;10533818;28;20780;-76
2022/10/08 07:48:11;;;;;;;8.60;4.00;;;;;13.20;101599.00;;;;10485780;28;20215;-76
2022/10/08 07:53:12;;;;;;;8.90;4.33;;;;;13.50;101601.00;;;;10531776;27;20231;-76
2022/10/08 07:58:13;;;;;;;12.20;3.67;;;;;13.90;101607.00;;;;10485331;27;20209;-76
2022/10/08 08:03:15;;;;;;;10.37;3.03;;;;;14.10;101605.00;;;;10501530;27;20213;-77
2022/10/08 08:08:16;;;;;;;8.83;2.77;;;;;14.30;101608.00;;;;10497538;28;20300;-76
2022/10/08 08:13:17;;;;;;;10.00;2.70;;;;;14.40;101625.00;;;;10466980;28;20221;-76
2022/10/08 08:18:18;;;;;;;9.80;2.53;;;;;14.60;101623.00;;;;10477914;28;20197;-76
2022/10/08 08:23:19;;;;;;;7.75;2.22;;;;;14.90;101637.00;;;;10499210;27;20220;-76
2022/10/08 08:28:22;;;;;;;7.78;2.20;;;;;15.30;101652.00;;;;10489480;27;20188;-76
2022/10/08 08:33:23;;;;;;;10.63;2.40;;;;;15.40;101656.00;;;;10479360;28;20224;-76
2022/10/08 08:38:24;;;;;;;7.57;1.98;;;;;15.80;101665.00;;;;10443280;28;20246;-76
2022/10/08 08:43:25;;;;;;;5.25;1.67;;;;;15.90;101662.00;;;;10499243;28;20219;-76
2022/10/08 08:48:31;;;;;;;3.97;1.20;;;;;16.00;101661.00;;;;10497906;28;20180;-76
2022/10/08 08:53:33;;;;;;;8.77;1.60;;;;;16.20;101682.00;;;;10499822;28;20200;-76
2022/10/08 08:59:03;;;;;;;4.05;1.45;;;;;16.30;101689.00;;;;10468555;28;20207;-76
2022/10/08 09:04:22;;;;;;;5.05;1.10;;;;;16.20;101703.00;;;;10473417;28;20529;-76
2022/10/08 09:09:36;;;;;;;3.20;0.80;;;;;15.90;101685.00;;;;10483037;28;20244;-76
2022/10/08 09:14:42;;;;;;;5.70;1.60;;;;;16.50;101702.00;;;;10523747;27;20207;-76
2022/10/08 09:19:44;;;;;;;2.17;0.90;;;;;17.10;101703.00;;;;10496250;27;20205;-76
2022/10/08 09:24:48;;;;;;;4.35;1.45;;;;;17.30;101701.00;;;;10468245;28;20294;-76
2022/10/08 09:29:50;;;;;;;5.43;1.60;;;;;17.50;101723.00;;;;10506121;27;20861;-76
2022/10/08 09:34:54;;;;;;;8.15;1.45;;;;;18.00;101722.00;;;;10475967;28;20197;-76
2022/10/08 09:40:11;;;;;;;5.70;1.67;;;;;17.50;101719.00;;;;10498107;27;20651;-76
2022/10/08 09:45:34;;;;;;;5.85;1.63;;;;;17.50;101732.00;;;;10492487;28;20207;-76
2022/10/08 09:50:36;;;;;;;5.05;1.20;;;;;17.20;101733.00;;;;10501808;28;20213;-76
2022/10/08 09:55:37;;;;;;;8.55;1.45;;;;;17.20;101738.00;;;;10530844;27;20188;-76
2022/10/08 10:00:39;;;;;;;6.78;1.27;;;;;16.70;101738.00;;;;10451760;28;20214;-76
2022/10/08 10:05:40;;;;;;;5.55;1.60;;;;;16.20;101740.00;;;;10489203;28;20202;-76
2022/10/08 10:10:45;;;;;;;2.97;1.13;;;;;17.10;101743.00;;;;10466664;28;20229;-75
2022/10/08 10:16:12;;;;;;;6.80;1.42;;;;;18.40;101743.00;;;;10514748;28;20204;-75
2022/10/08 10:21:19;;;;;;;5.43;1.27;;;;;18.60;101748.00;;;;10481106;28;20228;-76
2022/10/08 10:26:26;;;;;;;2.30;0.90;;;;;18.50;101755.00;;;;10482634;28;20197;-76
2022/10/08 10:31:37;;;;;;;5.40;1.48;;;;;19.40;101755.00;;;;10449362;28;20201;-76
2022/10/08 10:36:42;;;;;;;6.53;1.48;;;;;19.00;101760.00;;;;10493767;28;20659;-76
2022/10/08 10:41:58;;;;;;;4.53;1.48;;;;;18.70;101754.00;;;;10481473;27;20225;-75
2022/10/08 10:47:01;;;;;;;4.35;1.70;;;;;17.70;101766.00;;;;10468211;28;20566;-76
2022/10/08 10:52:32;;;;;;;6.25;2.08;;;;;18.30;101780.00;;;;10466036;28;20215;-77
2022/10/08 10:57:58;;;;;;;5.15;1.88;;;;;19.30;101773.00;;;;10457989;28;20813;-76
2022/10/08 11:03:15;;;;;;;5.90;1.88;;;;;18.50;101777.00;;;;10469294;28;20321;-76
2022/10/08 11:08:19;;;;;;;6.03;2.20;;;;;18.30;101769.00;;;;10503721;28;20192;-76
2022/10/08 11:13:40;;;;;;;5.40;1.80;;;;;18.00;101779.00;;;;10473385;28;20216;-75
2022/10/08 11:18:53;;;;;;;6.28;2.35;;;;;18.60;101774.00;;;;10499446;27;20567;-75
2022/10/08 11:24:19;;;;;;;6.57;1.50;;;;;18.70;101782.00;;;;10498609;28;20202;-75
2022/10/08 11:29:37;;;;;;;7.00;1.50;;;;;18.60;101778.00;;;;10495218;27;20274;-76
2022/10/08 11:34:48;;;;;;;5.57;1.92;;;;;17.80;101790.00;;;;10468595;27;20198;-76
2022/10/08 11:40:06;;;;;;;4.60;1.42;;;;;18.40;101773.00;;;;10509626;28;20277;-75
2022/10/08 11:45:25;;;;;;;5.32;1.45;;;;;18.70;101793.00;;;;10473032;28;20188;-76
2022/10/08 11:50:36;;;;;;;4.22;1.10;;;;;17.70;101801.00;;;;10499521;28;20201;-75
2022/10/08 11:55:38;;;;;;;2.03;0.90;;;;;16.60;101801.00;;;;10454696;28;21366;-75
2022/10/08 12:00:41;;;;;;;1.00;0.70;;;;;18.00;101791.00;;;;10473957;28;20217;-75
2022/10/08 12:05:50;;;;;;;4.78;1.17;;;;;18.70;101795.00;;;;10496279;28;20244;-76
2022/10/08 12:10:51;;;;;;;6.93;1.73;;;;;19.20;101782.00;;;;10521677;28;20208;-76
2022/10/08 12:15:54;;;;;;;3.70;1.45;;;;;18.40;101764.00;;;;10487003;28;20192;-76
2022/10/08 12:21:19;;;;;;;2.40;1.05;;;;;16.80;101793.00;;;;10452137;28;20470;-76
2022/10/08 12:26:20;;;;;;;6.25;1.25;;;;;16.10;101787.00;;;;10488299;27;20254;-75
2022/10/08 12:31:26;;;;;;;4.72;1.10;;;;;17.20;101778.00;;;;10474041;28;20293;-76
2022/10/08 12:36:40;;;;;;;4.85;1.00;;;;;18.50;101779.00;;;;10523770;28;20208;-76
2022/10/08 12:41:49;;;;;;;6.57;1.20;;;;;19.30;101771.00;;;;10479267;28;20224;-76
2022/10/08 12:47:13;;;;;;;4.57;0.80;;;;;20.00;101787.00;;;;10487389;27;20202;-77
2022/10/08 12:52:16;;;;;;;3.63;1.10;;;;;20.00;101769.00;;;;10457556;28;20208;-76
2022/10/08 12:57:41;;;;;;;5.00;1.20;;;;;20.10;101768.00;;;;10494356;28;20292;-76
2022/10/08 13:02:43;;;;;;;4.55;1.10;;;;;19.40;101771.00;;;;10519253;28;20220;-76
2022/10/08 13:07:44;;;;;;;6.43;1.10;;;;;19.20;101755.00;;;;10472228;28;20765;-76
2022/10/08 13:12:58;;;;;;;4.63;1.00;;;;;19.80;101759.00;;;;10495622;28;20282;-76
2022/10/08 13:18:11;;;;;;;5.57;1.33;;;;;19.60;101755.00;;;;10492507;28;20255;-76
2022/10/08 13:23:32;;;;;;;4.10;1.15;;;;;19.60;101757.00;;;;10511193;28;20251;-76
2022/10/08 13:28:34;;;;;;;2.47;0.90;;;;;19.60;101749.00;;;;10488878;28;20413;-76
2022/10/08 13:33:55;;;;;;;4.40;1.08;;;;;19.90;101752.00;;;;10473541;28;20197;-76
2022/10/08 13:38:56;;;;;;;4.72;1.23;;;;;20.30;101754.00;;;;10475787;28;20211;-76
2022/10/08 13:43:57;;;;;;;6.85;1.42;;;;;20.20;101754.00;;;;10498922;27;20340;-76
2022/10/08 13:48:58;;;;;;;3.92;1.67;;;;;19.60;101761.00;;;;10480147;27;20197;-76
2022/10/08 13:53:59;;;;;;;3.75;0.93;;;;;19.50;101763.00;;;;10480626;28;20284;-76
2022/10/08 13:59:00;;;;;;;4.90;1.17;;;;;20.50;101765.00;;;;10484053;28;20196;-76
2022/10/08 14:04:01;;;;;;;6.68;1.40;;;;;19.00;101768.00;;;;10446327;27;20201;-75
2022/10/08 14:09:04;;;;;;;4.15;0.88;;;;;17.80;101770.00;;;;10486216;28;20194;-76
2022/10/08 14:14:05;;;;;;;4.85;1.10;;;;;17.60;101767.00;;;;10454585;28;20205;-75
2022/10/08 14:19:06;;;;;;;4.93;1.02;;;;;18.80;101759.00;;;;10460702;28;20197;-76
2022/10/08 14:24:13;;;;;;;3.83;0.70;;;;;18.80;101769.00;;;;10502032;28;20216;-76
2022/10/08 14:29:14;;;;;;;5.13;1.73;;;;;18.50;101774.00;;;;10477911;28;20258;-76
2022/10/08 14:34:15;;;;;;;2.90;0.77;;;;;18.60;101768.00;;;;10511550;27;20190;-75
2022/10/08 14:39:16;;;;;;;3.53;1.25;;;;;18.00;101782.00;;;;10484454;28;20203;-76
2022/10/08 14:44:21;;;;;;;4.85;1.10;;;;;17.20;101787.00;;;;10487907;28;20196;-76
2022/10/08 14:49:22;;;;;;;5.18;1.10;;;;;16.60;101785.00;;;;10482054;28;20194;-76
2022/10/08 14:54:24;;;;;;;3.65;1.00;;;;;16.30;101789.00;;;;10496271;28;20197;-76
2022/10/08 14:59:26;;;;;;;3.67;1.33;;;;;16.30;101790.00;;;;10442586;28;20224;-75
2022/10/08 15:04:27;;;;;;;5.95;0.98;;;;;16.50;101793.00;;;;10504473;28;20278;-76
2022/10/08 15:09:30;;;;;;;5.55;1.98;;;;;16.20;101790.00;;;;10466051;28;20221;-75
2022/10/08 15:14:31;;;;;;;4.82;0.93;;;;;15.90;101789.00;;;;10479826;28;20544;-76
2022/10/08 15:19:38;;;;;;;6.90;1.00;;;;;15.80;101793.00;;;;10475003;28;20228;-76
2022/10/08 15:24:40;;;;;;;6.43;1.10;;;;;15.60;101790.00;;;;10497171;27;20199;-76
2022/10/08 15:29:41;;;;;;;4.38;1.25;;;;;15.50;101798.00;;;;10468399;28;20258;-76
2022/10/08 15:34:42;;;;;;;7.73;1.30;;;;;15.40;101792.00;;;;10478038;28;20208;-76
2022/10/08 15:39:43;;;;;;;4.47;1.08;;;;;15.40;101798.00;;;;10474052;28;20280;-76
2022/10/08 15:44:45;;;;;;;7.07;1.38;;;;;15.20;101797.00;;;;10498515;27;20529;-76
2022/10/08 15:49:46;;;;;;;6.28;1.20;;;;;15.20;101802.00;;;;10458186;28;20205;-76
2022/10/08 15:54:48;;;;;;;3.00;1.07;;;;;15.20;101806.00;;;;10452309;28;20197;-76
2022/10/08 15:59:49;;;;;;;4.03;2.00;;;;;15.10;101810.00;;;;10447919;28;20248;-76
2022/10/08 16:04:52;;;;;;;5.77;1.70;;;;;15.00;101813.00;;;;10504628;28;20683;-76
2022/10/08 16:09:53;;;;;;;7.47;1.88;;;;;14.80;101816.00;;;;10507143;28;20398;-76
2022/10/08 16:14:54;;;;;;;5.00;2.17;;;;;14.70;101819.00;;;;10510406;28;20232;-76
2022/10/08 16:19:55;;;;;;;5.77;1.67;;;;;14.50;101815.00;;;;10500122;28;20212;-76
2022/10/08 16:24:56;;;;;;;4.70;1.20;;;;;14.30;101824.00;;;;10486241;28;20201;-76
2022/10/08 16:29:58;;;;;;;6.43;1.73;;;;;14.20;101824.00;;;;10466173;28;20236;-76
2022/10/08 16:34:59;;;;;;;7.07;1.50;;;;;14.10;101836.00;;;;10496667;28;20262;-76
2022/10/08 16:40:02;;;;;;;4.70;1.20;;;;;13.90;101846.00;;;;10506399;27;20270;-76
2022/10/08 16:45:04;;;;;;;4.77;1.27;;;;;13.60;101844.00;;;;10474025;27;20200;-76
2022/10/08 16:50:06;;;;;;;6.27;1.33;;;;;13.40;101864.00;;;;10515266;27;20197;-76
2022/10/08 16:55:07;;;;;;;3.37;1.40;;;;;13.20;101853.00;;;;10495714;28;20193;-76
2022/10/08 17:00:09;;;;;;;5.03;1.60;;;;;13.10;101869.00;;;;10496508;28;20208;-76
2022/10/08 17:05:10;;;;;;;5.53;1.50;;;;;13.00;101870.00;;;;10505706;27;20254;-76
2022/10/08 17:10:12;;;;;;;7.13;1.47;;;;;12.80;101880.00;;;;10474113;28;20220;-76
2022/10/08 17:15:13;;;;;;;6.73;1.20;;;;;12.60;101888.00;;;;10503565;28;20196;-76
2022/10/08 17:20:14;;;;;;;10.77;2.07;;;;;12.40;101900.00;;;;10453639;28;20212;-76
2022/10/08 17:25:15;;;;;;;8.50;2.47;;;;;12.10;101908.00;;;;10464877;28;20197;-76
2022/10/08 17:30:16;;;;;;;7.23;1.67;;;;;11.80;101909.00;;;;10486728;27;20215;-76
2022/10/08 17:35:18;;;;;;;14.63;5.03;;;;;11.50;101920.00;;;;10464913;28;20734;-76
2022/10/08 17:40:19;;;;;;;21.70;10.47;;;;;11.20;101926.00;;;;10500096;28;20224;-76
2022/10/08 17:45:21;;;;;;;19.17;8.10;;;;;11.00;101922.00;;;;10484166;28;20892;-76
2022/10/08 17:50:22;;;;;;;22.03;8.33;;;;;10.80;101920.00;;;;10497881;28;20196;-76
2022/10/08 17:55:23;;;;;;;13.07;4.77;;;;;10.60;101936.00;;;;10480962;28;20198;-76
2022/10/08 18:00:25;;;;;;;15.50;7.67;;;;;10.50;101939.00;;;;10467088;28;20261;-76
2022/10/08 18:05:27;;;;;;;19.67;6.90;;;;;10.30;101935.00;;;;10497840;28;20201;-76
2022/10/08 18:10:28;;;;;;;18.80;8.30;;;;;10.20;101950.00;;;;10482125;28;20698;-76
2022/10/08 18:15:29;;;;;;;15.07;5.87;;;;;10.10;101953.00;;;;10480159;28;20748;-76
2022/10/08 18:20:30;;;;;;;31.77;11.27;;;;;10.00;101964.00;;;;10486574;28;20252;-76
2022/10/08 18:25:31;;;;;;;11.70;4.57;;;;;9.90;101966.00;;;;10495189;28;20261;-76
2022/10/08 18:30:35;;;;;;;14.00;5.00;;;;;9.90;101963.00;;;;10508358;28;20197;-76
2022/10/08 18:35:36;;;;;;;10.17;4.10;;;;;9.80;101976.00;;;;10488047;28;20516;-76
2022/10/08 18:40:37;;;;;;;8.43;4.00;;;;;9.70;101962.00;;;;10480464;28;20222;-76
2022/10/08 18:45:38;;;;;;;10.20;4.00;;;;;9.50;101981.00;;;;10469142;28;20563;-76
2022/10/08 18:50:39;;;;;;;11.77;5.53;;;;;9.40;101990.00;;;;10491747;27;20705;-76
2022/10/08 18:55:47;;;;;;;12.07;5.30;;;;;9.30;101988.00;;;;10502909;28;20744;-76
2022/10/08 19:00:48;;;;;;;13.13;5.77;;;;;9.30;101997.00;;;;10472932;28;20209;-76
2022/10/08 19:05:50;;;;;;;13.63;5.67;;;;;9.20;102003.00;;;;10505133;28;20956;-76
2022/10/08 19:10:51;;;;;;;14.33;8.13;;;;;9.10;101994.00;;;;10486791;28;20300;-76
2022/10/08 19:15:52;;;;;;;15.47;7.47;;;;;9.00;102004.00;;;;10448204;28;20419;-76
2022/10/08 19:20:54;;;;;;;14.23;6.90;;;;;8.90;102003.00;;;;10473001;28;20216;-76
2022/10/08 19:25:55;;;;;;;19.47;10.87;;;;;8.80;102010.00;;;;10465475;28;20223;-76
2022/10/08 19:30:56;;;;;;;24.60;9.60;;;;;8.80;102019.00;;;;10496568;28;20231;-76
2022/10/08 19:36:01;;;;;;;19.83;9.87;;;;;8.70;102011.00;;;;10497777;28;20197;-76
2022/10/08 19:41:07;;;;;;;20.83;9.27;;;;;8.60;102013.00;;;;10454517;28;20377;-76
2022/10/08 19:46:09;;;;;;;13.87;7.67;;;;;8.60;102022.00;;;;10486662;28;20568;-76
2022/10/08 19:51:10;;;;;;;16.43;9.33;;;;;8.50;102015.00;;;;10471446;28;20578;-76
2022/10/08 19:56:13;;;;;;;13.40;7.17;;;;;8.40;102013.00;;;;10471187;28;20193;-76
2022/10/08 20:01:23;;;;;;;15.80;6.23;;;;;8.30;102026.00;;;;10480591;28;20227;-76
2022/10/08 20:06:28;;;;;;;12.73;5.83;;;;;8.20;102034.00;;;;10484707;28;20238;-76
2022/10/08 20:11:30;;;;;;;12.13;5.73;;;;;8.10;102032.00;;;;10519855;28;20220;-76
2022/10/08 20:16:35;;;;;;;17.47;6.97;;;;;8.10;102039.00;;;;10471454;28;20193;-76
2022/10/08 20:21:36;;;;;;;12.37;5.60;;;;;8.00;102037.00;;;;10475575;28;20212;-76
2022/10/08 20:26:40;;;;;;;12.07;5.53;;;;;7.90;102034.00;;;;10499095;28;20208;-76
2022/10/08 20:31:59;;;;;;;15.87;6.50;;;;;7.90;102044.00;;;;10486449;28;20227;-76
2022/10/08 20:37:01;;;;;;;9.80;6.20;;;;;7.80;102044.00;;;;10491948;28;20191;-76
2022/10/08 20:42:02;;;;;;;17.93;6.77;;;;;7.70;102037.00;;;;10509271;28;20813;-76
2022/10/08 20:47:03;;;;;;;12.77;5.90;;;;;7.70;102029.00;;;;10472466;28;20189;-76
2022/10/08 20:52:05;;;;;;;19.00;6.60;;;;;7.60;102034.00;;;;10473046;28;20583;-76
2022/10/08 20:57:07;;;;;;;12.50;7.13;;;;;7.50;102038.00;;;;10474516;27;20260;-75
2022/10/08 21:02:10;;;;;;;11.13;6.27;;;;;7.50;102033.00;;;;10462852;28;20859;-76
2022/10/08 21:07:11;;;;;;;12.07;6.30;;;;;7.40;102038.00;;;;10470665;28;20679;-76
2022/10/08 21:12:12;;;;;;;11.83;6.70;;;;;7.40;102035.00;;;;10481033;28;20242;-76
2022/10/08 21:17:13;;;;;;;13.73;5.63;;;;;7.30;102047.00;;;;10495423;28;20196;-76
2022/10/08 21:22:15;;;;;;;11.13;4.93;;;;;7.30;102054.00;;;;10498824;28;20725;-76
2022/10/08 21:27:16;;;;;;;14.13;5.90;;;;;7.20;102049.00;;;;10484851;28;20643;-76
2022/10/08 21:32:17;;;;;;;14.67;5.47;;;;;7.20;102049.00;;;;10488061;28;20192;-76
2022/10/08 21:37:18;;;;;;;9.73;4.57;;;;;7.10;102044.00;;;;10470583;28;20608;-76
2022/10/08 21:42:20;;;;;;;11.17;5.20;;;;;7.10;102041.00;;;;10453231;28;20220;-76
2022/10/08 21:47:21;;;;;;;10.90;5.00;;;;;7.10;102051.00;;;;10485124;28;20224;-76
2022/10/08 21:52:22;;;;;;;11.03;5.23;;;;;7.00;102044.00;;;;10484476;27;20200;-76
2022/10/08 21:57:24;;;;;;;12.17;6.27;;;;;6.90;102045.00;;;;10495902;28;20224;-76
2022/10/08 22:02:25;;;;;;;15.00;5.40;;;;;6.80;102043.00;;;;10503710;28;20218;-76
2022/10/08 22:07:26;;;;;;;15.10;5.77;;;;;6.80;102041.00;;;;10464116;28;20195;-76
2022/10/08 22:12:27;;;;;;;15.67;5.83;;;;;6.70;102041.00;;;;10500109;28;20224;-76
2022/10/08 22:17:28;;;;;;;15.77;6.47;;;;;6.60;102046.00;;;;10508947;28;20223;-76
2022/10/08 22:22:29;;;;;;;14.33;4.97;;;;;6.60;102050.00;;;;10478115;28;20237;-76
2022/10/08 22:27:31;;;;;;;14.27;5.87;;;;;6.60;102041.00;;;;10470643;28;20197;-76
2022/10/08 22:32:32;;;;;;;13.67;6.17;;;;;6.50;102041.00;;;;10464195;28;20197;-76
2022/10/08 22:37:33;;;;;;;12.33;5.90;;;;;6.50;102038.00;;;;10488659;27;20682;-76
2022/10/08 22:42:34;;;;;;;17.67;6.50;;;;;6.40;102034.00;;;;10465203;28;20216;-76
2022/10/08 22:47:35;;;;;;;11.10;5.67;;;;;6.40;102037.00;;;;10491449;28;20735;-76
2022/10/08 22:52:36;;;;;;;11.13;5.83;;;;;6.30;102033.00;;;;10478159;28;20208;-76
2022/10/08 22:57:38;;;;;;;14.77;5.87;;;;;6.20;102030.00;;;;10502164;28;20665;-76
2022/10/08 23:02:40;;;;;;;12.63;6.63;;;;;6.20;102022.00;;;;10475247;28;20221;-76
2022/10/08 23:07:41;;;;;;;17.27;7.00;;;;;6.10;102023.00;;;;10486580;28;20200;-76
2022/10/08 23:12:42;;;;;;;18.10;7.60;;;;;6.10;102020.00;;;;10476811;27;20223;-76
2022/10/08 23:17:44;;;;;;;12.47;6.13;;;;;6.10;102017.00;;;;10495336;28;20201;-76
2022/10/08 23:22:45;;;;;;;15.27;7.00;;;;;6.00;102013.00;;;;10518455;28;20213;-76
2022/10/08 23:27:47;;;;;;;8.57;5.27;;;;;5.90;102011.00;;;;10484088;28;20204;-76
2022/10/08 23:32:48;;;;;;;10.50;5.90;;;;;5.90;102012.00;;;;10480518;27;20197;-76
2022/10/08 23:37:49;;;;;;;11.43;6.37;;;;;5.80;102005.00;;;;10500678;28;20200;-76
2022/10/08 23:42:51;;;;;;;9.97;5.37;;;;;5.70;102002.00;;;;10524166;28;20221;-76
2022/10/08 23:47:52;;;;;;;15.60;5.57;;;;;5.70;102003.00;;;;10507660;27;20197;-76
2022/10/08 23:52:53;;;;;;;12.17;6.07;;;;;5.70;101996.00;;;;10490252;28;20807;-76
2022/10/08 23:57:54;;;;;;;14.13;6.13;;;;;5.60;101997.00;;;;10471285;28;20203;-76
